createdAt,value
2018-12-29T00:01:16.029Z,64.17
2018-12-29T00:04:03.800Z,73.07
2018-12-29T00:06:32.288Z,67.40
2018-12-29T00:09:00.769Z,67.50
2018-12-29T00:11:29.260Z,71.33
2018-12-29T00:14:17.080Z,71.80
2018-12-29T00:16:45.580Z,73.10
2018-12-29T00:19:14.059Z,81.53
2018-12-29T00:22:01.697Z,74.43
2018-12-29T00:24:49.423Z,77.03
2018-12-29T00:27:37.246Z,74.27
2018-12-29T00:30:45.643Z,74.77
2018-12-29T00:33:33.400Z,72.03
2018-12-29T00:36:21.141Z,75.90
2018-12-29T00:38:49.623Z,71.60
2018-12-29T00:41:18.115Z,80.60
2018-12-29T00:43:46.605Z,83.27
2018-12-29T00:46:15.094Z,83.90
2018-12-29T00:48:43.577Z,72.67
2018-12-29T00:51:31.183Z,85.70
2018-12-29T00:57:06.225Z,86.47
2018-12-29T00:59:54.002Z,81.17
2018-12-29T01:02:41.566Z,86.57
2018-12-29T01:05:29.163Z,80.60
2018-12-29T01:07:57.655Z,83.50
2018-12-29T01:13:52.040Z,79.80
2018-12-29T01:16:39.778Z,86.50
2018-12-29T01:19:08.260Z,83.97
2018-12-29T01:21:36.747Z,97.40
2018-12-29T01:24:24.475Z,80.47
2018-12-29T01:26:52.962Z,90.40
2018-12-29T01:29:40.686Z,81.53
2018-12-29T01:32:28.424Z,77.23
2018-12-29T01:34:56.914Z,76.27
2018-12-29T01:37:44.511Z,89.47
2018-12-29T01:40:12.994Z,74.07
2018-12-29T01:43:00.731Z,78.27
2018-12-29T01:45:29.210Z,85.17
2018-12-29T01:48:10.398Z,81.93
2018-12-29T01:50:38.876Z,65.27
2018-12-29T01:56:00.171Z,78.07
2018-12-29T01:58:28.665Z,89.33
2018-12-29T02:01:16.498Z,79.50
2018-12-29T02:06:57.900Z,85.27
2018-12-29T02:09:45.511Z,83.37
2018-12-29T02:12:14.002Z,77.53
2018-12-29T02:14:42.482Z,89.47
2018-12-29T02:17:10.968Z,105.70
2018-12-29T02:22:14.135Z,87.07
2018-12-29T02:24:42.617Z,96.50
2018-12-29T02:27:30.352Z,95.37
2018-12-29T02:29:58.832Z,96.23
2018-12-29T02:32:27.320Z,81.10
2018-12-29T02:35:15.053Z,90.23
2018-12-29T02:37:43.553Z,82.30
2018-12-29T02:40:12.031Z,93.17
2018-12-29T02:42:40.520Z,80.83
2018-12-29T02:45:33.160Z,80.17
2018-12-29T02:47:58.475Z,78.73
2018-12-29T02:50:46.203Z,81.70
2018-12-29T02:53:14.696Z,83.90
2018-12-29T02:56:02.297Z,81.73
2018-12-29T02:58:50.030Z,83.87
2018-12-29T03:01:37.626Z,75.20
2018-12-29T03:04:06.116Z,79.70
2018-12-29T03:06:34.597Z,79.53
2018-12-29T03:09:22.332Z,72.77
2018-12-29T03:12:09.932Z,75.47
2018-12-29T03:14:57.536Z,68.17
2018-12-29T03:20:19.282Z,69.73
2018-12-29T03:22:47.796Z,77.70
2018-12-29T03:25:35.392Z,66.13
2018-12-29T03:28:22.996Z,70.30
2018-12-29T03:31:10.653Z,79.93
2018-12-29T03:33:58.327Z,82.47
2018-12-29T03:36:26.809Z,94.90
2018-12-29T03:39:14.547Z,73.80
2018-12-29T03:42:02.278Z,77.60
2018-12-29T03:44:30.771Z,79.50
2018-12-29T03:46:59.250Z,82.00
2018-12-29T03:49:27.733Z,87.90
2018-12-29T03:52:15.462Z,72.27
2018-12-29T03:54:43.953Z,82.70
2018-12-29T03:57:31.690Z,81.40
2018-12-29T04:00:19.283Z,75.90
2018-12-29T04:02:47.769Z,78.40
2018-12-29T04:05:16.255Z,66.43
2018-12-29T04:07:44.735Z,71.50
2018-12-29T04:10:53.141Z,70.40
2018-12-29T04:13:40.965Z,76.70
2018-12-29T04:16:09.453Z,75.33
2018-12-29T04:18:37.939Z,86.57
2018-12-29T04:23:59.414Z,67.97
2018-12-29T04:26:27.899Z,81.70
2018-12-29T04:28:56.387Z,80.10
2018-12-29T04:31:44.116Z,84.60
2018-12-29T04:34:12.607Z,80.13
2018-12-29T04:37:00.194Z,78.20
2018-12-29T04:39:28.690Z,76.50
2018-12-29T04:42:16.414Z,82.40
2018-12-29T04:44:44.907Z,74.97
2018-12-29T04:47:13.387Z,86.87
2018-12-29T04:49:41.885Z,80.03
2018-12-29T04:52:10.362Z,79.93
2018-12-29T04:54:58.099Z,78.87
2018-12-29T04:57:45.828Z,82.53
2018-12-29T05:00:33.567Z,92.93
2018-12-29T05:03:02.047Z,79.03
2018-12-29T05:05:49.646Z,68.27
2018-12-29T05:08:37.244Z,83.03
2018-12-29T05:11:05.733Z,76.43
2018-12-29T05:13:34.216Z,75.53
2018-12-29T05:16:22.049Z,81.57
2018-12-29T05:18:50.527Z,78.23
2018-12-29T05:21:38.273Z,77.73
2018-12-29T05:24:06.750Z,80.70
2018-12-29T05:26:54.488Z,82.53
2018-12-29T05:29:42.268Z,87.27
2018-12-29T05:32:29.868Z,74.03
2018-12-29T05:34:58.365Z,83.80
2018-12-29T05:37:46.094Z,90.77
2018-12-29T05:40:33.830Z,75.60
2018-12-29T05:43:02.310Z,92.20
2018-12-29T05:45:30.804Z,96.07
2018-12-29T05:47:59.273Z,92.87
2018-12-29T05:50:47.105Z,107.13
2018-12-29T05:53:15.588Z,93.13
2018-12-29T05:56:03.337Z,95.53
2018-12-29T06:04:31.451Z,83.27
2018-12-29T06:07:19.196Z,100.20
2018-12-29T06:09:47.673Z,84.17
2018-12-29T06:12:35.286Z,90.10
2018-12-29T06:17:58.372Z,93.20
2018-12-29T06:20:46.110Z,105.10
2018-12-29T06:23:33.703Z,113.57
2018-12-29T06:26:02.198Z,99.53
2018-12-29T06:28:30.680Z,93.83
2018-12-29T06:31:18.296Z,100.90
2018-12-29T06:34:06.018Z,96.70
2018-12-29T06:37:14.427Z,106.07
2018-12-29T06:40:02.156Z,89.77
2018-12-29T06:42:30.656Z,103.97
2018-12-29T06:47:46.587Z,112.70
2018-12-29T06:50:15.073Z,88.03
2018-12-29T06:52:43.563Z,96.93
2018-12-29T06:55:31.327Z,110.63
2018-12-29T06:57:59.815Z,91.77
2018-12-29T07:00:28.310Z,126.47
2018-12-29T07:03:16.035Z,107.93
2018-12-29T07:05:44.877Z,98.10
2018-12-29T07:08:32.695Z,112.03
2018-12-29T07:11:20.437Z,119.23
2018-12-29T07:14:08.168Z,120.73
2018-12-29T07:16:42.168Z,107.50
2018-12-29T07:19:26.117Z,108.60
2018-12-29T07:21:54.614Z,119.60
2018-12-29T07:24:42.340Z,120.50
2018-12-29T07:27:29.948Z,123.77
2018-12-29T07:29:58.435Z,127.70
2018-12-29T07:32:26.928Z,122.93
2018-12-29T07:34:55.490Z,158.10
2018-12-29T07:37:23.986Z,137.70
2018-12-29T07:39:52.467Z,154.00
2018-12-29T07:42:20.961Z,131.70
2018-12-29T07:44:49.445Z,151.87
2018-12-29T07:47:37.058Z,152.07
2018-12-29T07:50:45.448Z,166.03
2018-12-29T07:56:06.692Z,157.00
2018-12-29T07:58:35.183Z,173.23
2018-12-29T08:04:16.559Z,160.47
2018-12-29T08:06:45.058Z,172.93
2018-12-29T08:09:32.657Z,174.60
2018-12-29T08:12:01.161Z,175.97
2018-12-29T08:14:29.636Z,210.47
2018-12-29T08:16:58.133Z,201.80
2018-12-29T08:19:26.615Z,185.50
2018-12-29T08:21:55.111Z,176.57
2018-12-29T08:27:11.044Z,144.37
2018-12-29T08:29:58.645Z,181.70
2018-12-29T08:32:27.143Z,168.70
2018-12-29T08:34:55.629Z,140.90
2018-12-29T08:37:24.122Z,143.77
2018-12-29T08:39:52.603Z,162.07
2018-12-29T08:44:55.469Z,174.37
2018-12-29T08:47:43.076Z,157.23
2018-12-29T08:50:13.262Z,185.67
2018-12-29T08:52:41.778Z,167.03
2018-12-29T08:55:30.081Z,187.80
2018-12-29T08:57:59.732Z,155.43
2018-12-29T09:00:47.329Z,174.60
2018-12-29T09:03:15.837Z,169.73
2018-12-29T09:05:44.320Z,179.10
2018-12-29T09:08:32.061Z,191.57
2018-12-29T09:11:19.661Z,184.63
2018-12-29T09:14:07.403Z,209.60
2018-12-29T09:16:55.006Z,171.50
2018-12-29T09:19:27.244Z,238.50
2018-12-29T09:21:53.707Z,224.10
2018-12-29T09:24:22.213Z,205.83
2018-12-29T09:27:09.945Z,164.80
2018-12-29T09:29:57.559Z,181.07
2018-12-29T09:32:45.388Z,160.83
2018-12-29T09:35:32.989Z,120.73
2018-12-29T09:38:01.784Z,145.30
2018-12-29T09:40:30.288Z,123.17
2018-12-29T09:43:18.017Z,102.80
2018-12-29T09:45:46.506Z,133.40
2018-12-29T09:50:49.441Z,135.30
2018-12-29T09:53:37.189Z,122.67
2018-12-29T09:56:05.669Z,108.43
2018-12-29T09:58:34.166Z,102.13
2018-12-29T10:01:21.898Z,112.07
2018-12-29T10:04:09.506Z,102.30
2018-12-29T10:06:57.104Z,88.93
2018-12-29T10:09:25.595Z,99.43
2018-12-29T10:12:13.188Z,88.07
2018-12-29T10:14:41.681Z,93.80
2018-12-29T10:17:29.409Z,80.70
2018-12-29T10:19:57.904Z,83.87
2018-12-29T10:22:45.503Z,105.37
2018-12-29T10:25:33.110Z,98.83
2018-12-29T10:28:20.950Z,113.33
2018-12-29T10:30:49.440Z,103.07
2018-12-29T10:33:17.929Z,93.17
2018-12-29T10:38:53.106Z,90.93
2018-12-29T10:41:21.588Z,94.40
2018-12-29T10:43:50.074Z,96.53
2018-12-29T10:46:37.803Z,90.77
2018-12-29T10:49:06.295Z,80.73
2018-12-29T10:51:34.770Z,84.70
2018-12-29T10:54:22.601Z,73.03
2018-12-29T10:56:51.083Z,70.60
2018-12-29T10:59:19.570Z,64.87
2018-12-29T11:01:48.051Z,65.47
2018-12-29T11:07:09.703Z,58.10
2018-12-29T11:09:38.195Z,63.37
2018-12-29T11:12:25.795Z,63.63
2018-12-29T11:14:54.314Z,71.77
2018-12-29T11:17:42.434Z,53.97
2018-12-29T11:20:12.275Z,59.67
2018-12-29T11:22:40.809Z,57.07
2018-12-29T11:25:09.317Z,51.60
2018-12-29T11:27:56.978Z,57.43
2018-12-29T11:30:25.559Z,60.75
2018-12-29T11:32:54.092Z,50.47
2018-12-29T11:35:41.926Z,53.77
2018-12-29T11:38:29.672Z,46.40
2018-12-29T11:40:58.192Z,47.47
2018-12-29T11:46:34.896Z,46.90
2018-12-29T11:49:03.414Z,50.50
2018-12-29T11:51:51.051Z,53.40
2018-12-29T11:54:19.553Z,56.30
2018-12-29T11:56:48.071Z,56.23
2018-12-29T11:59:16.590Z,56.60
2018-12-29T12:02:04.417Z,62.50
2018-12-29T12:04:52.055Z,61.67
2018-12-29T12:07:39.652Z,62.43
2018-12-29T12:10:08.164Z,63.83
2018-12-29T12:12:38.668Z,60.87
2018-12-29T12:15:47.086Z,68.60
2018-12-29T12:18:17.358Z,66.77
2018-12-29T12:21:04.923Z,74.00
2018-12-29T12:23:52.670Z,65.23
2018-12-29T12:26:21.193Z,70.93
2018-12-29T12:29:09.044Z,66.67
2018-12-29T12:31:58.401Z,65.73
2018-12-29T12:34:26.918Z,61.47
2018-12-29T12:36:55.412Z,69.00
2018-12-29T12:39:43.017Z,67.67
2018-12-29T12:42:11.515Z,64.20
2018-12-29T12:44:40.004Z,66.73
2018-12-29T12:47:10.238Z,66.23
2018-12-29T12:49:38.855Z,65.93
2018-12-29T12:52:07.338Z,66.40
2018-12-29T12:54:35.820Z,64.43
2018-12-29T12:57:25.286Z,67.33
2018-12-29T12:59:55.572Z,61.07
2018-12-29T13:02:25.815Z,69.60
2018-12-29T13:04:54.299Z,61.27
2018-12-29T13:07:41.955Z,56.57
2018-12-29T13:10:29.684Z,52.97
2018-12-29T13:12:58.182Z,48.27
2018-12-29T13:15:26.704Z,56.33
2018-12-29T13:17:55.187Z,66.00
2018-12-29T13:20:42.797Z,65.63
2018-12-29T13:23:11.308Z,51.03
2018-12-29T13:25:58.910Z,54.03
2018-12-29T13:28:46.518Z,51.33
2018-12-29T13:31:15.012Z,61.20
2018-12-29T13:33:43.510Z,55.87
2018-12-29T13:36:33.003Z,58.23
2018-12-29T13:39:01.504Z,51.77
2018-12-29T13:41:30.004Z,59.40
2018-12-29T13:44:17.765Z,57.27
2018-12-29T13:46:46.298Z,52.87
2018-12-29T13:49:14.785Z,53.47
2018-12-29T13:51:43.270Z,58.10
2018-12-29T13:57:01.051Z,53.17
2018-12-29T13:59:29.667Z,55.00
2018-12-29T14:02:24.634Z,63.00
2018-12-29T14:04:53.115Z,58.97
2018-12-29T14:07:40.751Z,61.80
2018-12-29T14:10:28.359Z,58.23
2018-12-29T14:12:56.861Z,53.33
2018-12-29T14:15:26.442Z,54.07
2018-12-29T14:17:55.623Z,60.57
2018-12-29T14:20:24.135Z,59.37
2018-12-29T14:22:52.637Z,48.80
2018-12-29T14:25:40.410Z,62.03
2018-12-29T14:28:28.215Z,56.33
2018-12-29T14:30:56.742Z,52.37
2018-12-29T14:33:44.568Z,59.37
2018-12-29T14:36:13.081Z,60.37
2018-12-29T14:39:00.707Z,57.90
2018-12-29T14:44:03.163Z,62.33
2018-12-29T14:46:50.816Z,62.20
2018-12-29T14:49:19.333Z,61.60
2018-12-29T14:51:48.099Z,52.20
2018-12-29T14:54:35.850Z,66.87
2018-12-29T14:57:04.463Z,61.27
2018-12-29T14:59:33.269Z,75.57
2018-12-29T15:04:36.304Z,70.40
2018-12-29T15:07:04.900Z,84.03
2018-12-29T15:09:33.411Z,88.20
2018-12-29T15:12:01.972Z,79.13
2018-12-29T15:14:49.667Z,83.87
2018-12-29T15:17:18.191Z,81.37
2018-12-29T15:19:46.696Z,74.33
2018-12-29T15:22:34.614Z,67.13
2018-12-29T15:25:22.484Z,76.00
2018-12-29T15:27:52.776Z,89.20
2018-12-29T15:30:21.281Z,84.33
2018-12-29T15:33:08.928Z,92.40
2018-12-29T15:35:56.772Z,85.70
2018-12-29T15:38:25.300Z,84.47
2018-12-29T15:41:14.610Z,83.27
2018-12-29T15:43:43.094Z,77.77
2018-12-29T15:46:11.602Z,77.20
2018-12-29T15:48:40.150Z,83.53
2018-12-29T15:51:08.674Z,75.23
2018-12-29T15:53:37.199Z,70.10
2018-12-29T15:56:24.855Z,81.67
2018-12-29T15:58:53.368Z,79.10
2018-12-29T16:01:23.578Z,78.53
2018-12-29T16:03:52.106Z,69.70
2018-12-29T16:06:20.622Z,65.90
2018-12-29T16:08:49.170Z,67.30
2018-12-29T16:11:25.998Z,73.57
2018-12-29T16:13:49.624Z,69.10
2018-12-29T16:16:18.153Z,67.20
2018-12-29T16:19:05.994Z,70.43
2018-12-29T16:21:34.546Z,70.87
2018-12-29T16:24:03.072Z,81.37
2018-12-29T16:26:50.720Z,67.83
2018-12-29T16:29:19.227Z,63.53
2018-12-29T16:31:47.729Z,62.40
2018-12-29T16:34:37.190Z,65.57
2018-12-29T16:37:24.802Z,50.90
2018-12-29T16:39:53.376Z,56.27
2018-12-29T16:42:42.815Z,57.20
2018-12-29T16:45:11.370Z,51.37
2018-12-29T16:47:39.911Z,55.03
2018-12-29T16:50:48.307Z,51.90
2018-12-29T16:53:36.046Z,49.03
2018-12-29T16:56:04.579Z,48.10
2018-12-29T16:58:33.124Z,49.17
2018-12-29T17:01:20.799Z,43.80
2018-12-29T17:04:08.813Z,45.47
2018-12-29T17:06:37.625Z,36.03
2018-12-29T17:09:46.074Z,39.70
2018-12-29T17:12:36.950Z,38.43
2018-12-29T17:15:45.848Z,37.33
2018-12-29T17:18:16.161Z,34.07
2018-12-29T17:20:44.721Z,35.90
2018-12-29T17:23:32.435Z,38.00
2018-12-29T17:26:01.041Z,31.13
2018-12-29T17:28:31.291Z,32.90
2018-12-29T17:30:59.837Z,33.23
2018-12-29T17:33:28.355Z,28.50
2018-12-29T17:36:16.152Z,29.07
2018-12-29T17:39:04.485Z,20.90
2018-12-29T17:41:33.008Z,28.93
2018-12-29T17:44:01.518Z,30.53
2018-12-29T17:46:31.773Z,24.73
2018-12-29T17:49:00.318Z,30.17
2018-12-29T17:51:47.933Z,32.40
2018-12-29T17:54:16.438Z,33.30
2018-12-29T17:56:45.251Z,32.13
2018-12-29T17:59:32.982Z,28.20
2018-12-29T18:04:50.617Z,25.83
2018-12-29T18:07:20.900Z,27.17
2018-12-29T18:10:08.514Z,35.00
2018-12-29T18:12:37.034Z,30.40
2018-12-29T18:15:45.477Z,34.87
2018-12-29T18:18:33.191Z,38.07
2018-12-29T18:21:01.737Z,35.33
2018-12-29T18:23:31.983Z,38.20
2018-12-29T18:26:00.487Z,30.60
2018-12-29T18:28:29.374Z,34.50
2018-12-29T18:30:59.243Z,35.80
2018-12-29T18:33:47.048Z,35.20
2018-12-29T18:36:15.571Z,39.80
2018-12-29T18:38:45.819Z,35.13
2018-12-29T18:41:14.346Z,35.83
2018-12-29T18:44:02.068Z,42.20
2018-12-29T18:46:30.572Z,34.90
2018-12-29T18:48:59.109Z,35.43
2018-12-29T18:51:27.649Z,44.37
2018-12-29T18:54:15.471Z,36.50
2018-12-29T18:57:03.340Z,40.80
2018-12-29T18:59:31.844Z,42.17
2018-12-29T19:02:00.338Z,39.60
2018-12-29T19:04:28.852Z,51.47
2018-12-29T19:06:57.410Z,46.73
2018-12-29T19:09:25.933Z,45.80
2018-12-29T19:11:54.535Z,49.30
2018-12-29T19:14:24.748Z,42.83
2018-12-29T19:16:55.001Z,46.60
2018-12-29T19:19:25.233Z,43.50
2018-12-29T19:21:53.771Z,48.10
2018-12-29T19:24:41.546Z,42.77
2018-12-29T19:27:10.153Z,40.43
2018-12-29T19:29:40.370Z,43.97
2018-12-29T19:32:10.595Z,39.50
2018-12-29T19:34:40.814Z,45.43
2018-12-29T19:37:11.067Z,46.47
2018-12-29T19:40:00.429Z,41.30
2018-12-29T19:42:29.183Z,36.50
2018-12-29T19:45:16.827Z,33.07
2018-12-29T19:47:45.787Z,40.50
2018-12-29T19:50:16.132Z,39.03
2018-12-29T19:52:44.737Z,38.53
2018-12-29T19:55:32.505Z,40.17
2018-12-29T19:58:00.998Z,19.87
2018-12-29T20:00:50.640Z,22.83
2018-12-29T20:03:21.009Z,10.70
2018-12-29T20:05:51.241Z,10.07
2018-12-29T20:08:19.746Z,14.60
2018-12-29T20:10:49.980Z,13.43
2018-12-29T20:13:18.494Z,8.17
2018-12-29T20:15:47.030Z,15.60
2018-12-29T20:18:34.749Z,8.47
2018-12-29T20:21:03.282Z,14.53
2018-12-29T20:23:31.777Z,12.97
2018-12-29T20:26:00.308Z,4.30
2018-12-29T20:28:47.970Z,8.00
2018-12-29T20:31:16.490Z,5.57
2018-12-29T20:33:44.984Z,7.03
2018-12-29T20:36:13.511Z,11.97
2018-12-29T20:39:01.244Z,5.37
2018-12-29T20:41:48.977Z,8.43
2018-12-29T20:47:04.911Z,7.40
2018-12-29T20:52:20.846Z,15.40
2018-12-29T20:54:49.335Z,20.70
2018-12-29T20:57:17.883Z,8.43
2018-12-29T20:59:46.411Z,12.67
2018-12-29T21:02:14.963Z,11.60
2018-12-29T21:05:02.593Z,3.27
2018-12-29T21:07:31.131Z,14.23
2018-12-29T21:09:59.656Z,24.00
2018-12-29T21:12:28.165Z,4.23
2018-12-29T21:17:44.216Z,8.23
2018-12-29T21:20:17.372Z,6.57
2018-12-29T21:22:43.019Z,8.20
2018-12-29T21:27:59.058Z,7.47
2018-12-29T21:30:27.693Z,6.03
2018-12-29T21:33:15.461Z,4.00
2018-12-29T21:35:45.711Z,4.67
2018-12-29T21:38:33.401Z,12.30
2018-12-29T21:41:21.065Z,2.57
2018-12-29T21:44:08.777Z,3.10
2018-12-29T21:46:56.431Z,6.80
2018-12-29T21:49:25.058Z,3.97
2018-12-29T21:51:53.569Z,6.30
2018-12-29T21:54:22.071Z,9.37
2018-12-29T21:56:50.613Z,2.97
2018-12-29T21:59:19.107Z,1.70
2018-12-29T22:02:06.776Z,7.73
2018-12-29T22:04:54.371Z,7.93
2018-12-29T22:07:22.861Z,2.87
2018-12-29T22:09:51.414Z,6.13
2018-12-29T22:12:39.271Z,3.83
2018-12-29T22:17:56.880Z,6.20
2018-12-29T22:20:44.723Z,5.23
2018-12-29T22:23:32.643Z,4.97
2018-12-29T22:26:01.257Z,3.23
2018-12-29T22:28:48.896Z,7.23
2018-12-29T22:31:17.367Z,4.53
2018-12-29T22:33:47.587Z,9.20
2018-12-29T22:36:16.085Z,4.47
2018-12-29T22:39:24.599Z,5.47
2018-12-29T22:41:53.131Z,15.07
2018-12-29T22:44:21.639Z,6.10
2018-12-29T22:46:50.170Z,12.00
2018-12-29T22:49:37.930Z,9.13
2018-12-29T22:52:25.793Z,8.93
2018-12-29T22:55:13.415Z,12.23
2018-12-29T22:57:41.933Z,2.77
2018-12-29T23:00:50.428Z,6.10
2018-12-29T23:03:18.998Z,2.07
2018-12-29T23:05:47.556Z,2.73
2018-12-29T23:08:16.087Z,5.00
2018-12-29T23:10:44.599Z,3.40
2018-12-29T23:13:13.132Z,4.03
2018-12-29T23:15:41.802Z,13.03
2018-12-29T23:18:29.433Z,3.57
2018-12-29T23:20:57.940Z,5.17
2018-12-29T23:23:26.513Z,3.80
2018-12-29T23:25:56.763Z,3.20
2018-12-29T23:28:44.595Z,2.57
2018-12-29T23:34:00.543Z,1.73
2018-12-29T23:36:29.091Z,1.83
2018-12-29T23:38:57.644Z,2.50
2018-12-29T23:44:13.608Z,2.10
2018-12-29T23:46:42.190Z,1.60
2018-12-29T23:49:29.998Z,2.67
2018-12-29T23:52:00.266Z,1.90
2018-12-29T23:54:28.879Z,2.93
2018-12-29T23:56:59.162Z,2.10
2018-12-29T23:59:27.703Z,3.07
